sensor_id;sensor_type;location;lat;lon;timestamp;pressure;altitude;pressure_sealevel;temperature;humidity
75936;BME280;64614;32.062;34.834;2022-11-11T00:00:11;101325.44;;;24.14;56.68
75936;BME280;64614;32.062;34.834;2022-11-11T00:02:37;101323.78;;;24.13;56.46
75936;BME280;64614;32.062;34.834;2022-11-11T00:05:03;101328.47;;;24.12;56.85
75936;BME280;64614;32.062;34.834;2022-11-11T00:07:29;101330.41;;;24.12;56.57
75936;BME280;64614;32.062;34.834;2022-11-11T00:09:55;101320.56;;;24.11;56.93
75936;BME280;64614;32.062;34.834;2022-11-11T00:12:21;101328.28;;;24.08;56.68
75936;BME280;64614;32.062;34.834;2022-11-11T00:14:46;101330.41;;;24.12;57.20
75936;BME280;64614;32.062;34.834;2022-11-11T00:17:13;101329.09;;;24.09;57.31
75936;BME280;64614;32.062;34.834;2022-11-11T00:19:57;101334.56;;;24.09;57.20
75936;BME280;64614;32.062;34.834;2022-11-11T00:22:41;101331.63;;;24.05;56.93
75936;BME280;64614;32.062;34.834;2022-11-11T00:25:25;101327.25;;;24.04;57.34
75936;BME280;64614;32.062;34.834;2022-11-11T00:27:50;101321.50;;;24.06;57.74
75936;BME280;64614;32.062;34.834;2022-11-11T00:30:16;101322.28;;;24.06;57.26
75936;BME280;64614;32.062;34.834;2022-11-11T00:32:42;101313.75;;;24.08;56.95
75936;BME280;64614;32.062;34.834;2022-11-11T00:35:08;101324.44;;;24.09;57.03
75936;BME280;64614;32.062;34.834;2022-11-11T00:37:52;101321.69;;;24.09;57.30
75936;BME280;64614;32.062;34.834;2022-11-11T00:40:18;101323.91;;;24.07;57.47
75936;BME280;64614;32.062;34.834;2022-11-11T00:42:44;101323.59;;;24.09;57.51
75936;BME280;64614;32.062;34.834;2022-11-11T00:45:10;101320.34;;;24.07;57.57
75936;BME280;64614;32.062;34.834;2022-11-11T00:47:36;101322.28;;;24.06;57.22
75936;BME280;64614;32.062;34.834;2022-11-11T00:50:23;101321.16;;;24.07;57.23
75936;BME280;64614;32.062;34.834;2022-11-11T00:53:14;101317.13;;;24.05;57.55
75936;BME280;64614;32.062;34.834;2022-11-11T00:55:40;101317.41;;;24.03;57.34
75936;BME280;64614;32.062;34.834;2022-11-11T00:58:07;101316.28;;;24.04;56.98
75936;BME280;64614;32.062;34.834;2022-11-11T01:00:33;101317.41;;;24.03;57.30
75936;BME280;64614;32.062;34.834;2022-11-11T01:02:58;101317.72;;;24.02;57.37
75936;BME280;64614;32.062;34.834;2022-11-11T01:05:25;101312.53;;;24.00;57.16
75936;BME280;64614;32.062;34.834;2022-11-11T01:07:51;101318.22;;;24.04;57.37
75936;BME280;64614;32.062;34.834;2022-11-11T01:10:17;101318.50;;;24.02;57.22
75936;BME280;64614;32.062;34.834;2022-11-11T01:13:04;101314.66;;;24.03;57.57
75936;BME280;64614;32.062;34.834;2022-11-11T01:15:37;101320.16;;;24.03;57.73
75936;BME280;64614;32.062;34.834;2022-11-11T01:18:03;101313.03;;;24.02;57.12
75936;BME280;64614;32.062;34.834;2022-11-11T01:20:29;101313.84;;;24.03;57.56
75936;BME280;64614;32.062;34.834;2022-11-11T01:22:54;101309.81;;;24.00;57.36
75936;BME280;64614;32.062;34.834;2022-11-11T01:25:20;101306.75;;;24.02;57.33
75936;BME280;64614;32.062;34.834;2022-11-11T01:27:46;101303.28;;;23.96;57.66
75936;BME280;64614;32.062;34.834;2022-11-11T01:30:12;101301.84;;;23.99;58.34
75936;BME280;64614;32.062;34.834;2022-11-11T01:32:39;101299.94;;;24.13;57.57
75936;BME280;64614;32.062;34.834;2022-11-11T01:35:05;101301.44;;;24.19;56.77
75936;BME280;64614;32.062;34.834;2022-11-11T01:37:34;101308.34;;;24.17;56.42
75936;BME280;64614;32.062;34.834;2022-11-11T01:40:01;101298.69;;;24.19;56.52
75936;BME280;64614;32.062;34.834;2022-11-11T01:42:27;101300.63;;;24.19;55.88
75936;BME280;64614;32.062;34.834;2022-11-11T01:44:53;101304.50;;;24.18;56.04
75936;BME280;64614;32.062;34.834;2022-11-11T01:47:18;101302.25;;;24.20;56.17
75936;BME280;64614;32.062;34.834;2022-11-11T01:49:55;101299.22;;;24.21;55.86
75936;BME280;64614;32.062;34.834;2022-11-11T01:52:28;101302.47;;;24.23;55.69
75936;BME280;64614;32.062;34.834;2022-11-11T02:03:04;101292.31;;;24.10;55.73
75936;BME280;64614;32.062;34.834;2022-11-11T02:05:31;101296.56;;;24.02;55.83
75936;BME280;64614;32.062;34.834;2022-11-11T02:08:21;101296.09;;;24.00;56.22
75936;BME280;64614;32.062;34.834;2022-11-11T02:11:01;101296.09;;;24.00;56.22
75936;BME280;64614;32.062;34.834;2022-11-11T02:13:27;101291.72;;;23.99;56.38
75936;BME280;64614;32.062;34.834;2022-11-11T02:16:11;101293.63;;;23.99;56.54
75936;BME280;64614;32.062;34.834;2022-11-11T02:18:37;101295.06;;;23.96;56.58
75936;BME280;64614;32.062;34.834;2022-11-11T02:21:03;101294.53;;;23.94;56.45
75936;BME280;64614;32.062;34.834;2022-11-11T02:26:29;101289.88;;;23.94;56.88
75936;BME280;64614;32.062;34.834;2022-11-11T02:28:56;101289.06;;;23.94;56.46
75936;BME280;64614;32.062;34.834;2022-11-11T02:31:30;101281.94;;;23.93;56.85
75936;BME280;64614;32.062;34.834;2022-11-11T02:33:57;101289.06;;;23.94;56.85
75936;BME280;64614;32.062;34.834;2022-11-11T02:36:25;101284.16;;;23.91;57.27
75936;BME280;64614;32.062;34.834;2022-11-11T02:38:51;101281.72;;;23.89;56.97
75936;BME280;64614;32.062;34.834;2022-11-11T02:41:17;101284.16;;;23.91;57.12
75936;BME280;64614;32.062;34.834;2022-11-11T02:44:01;101290.75;;;23.90;56.67
75936;BME280;64614;32.062;34.834;2022-11-11T02:46:28;101285.78;;;23.92;56.58
75936;BME280;64614;32.062;34.834;2022-11-11T02:48:55;101286.09;;;23.90;56.86
75936;BME280;64614;32.062;34.834;2022-11-11T02:51:20;101290.44;;;23.91;56.99
75936;BME280;64614;32.062;34.834;2022-11-11T02:53:46;101289.66;;;23.91;57.01
75936;BME280;64614;32.062;34.834;2022-11-11T02:56:12;101293.50;;;23.90;57.26
75936;BME280;64614;32.062;34.834;2022-11-11T02:58:57;101288.03;;;23.90;57.08
75936;BME280;64614;32.062;34.834;2022-11-11T03:01:23;101300.13;;;23.89;57.19
75936;BME280;64614;32.062;34.834;2022-11-11T03:03:48;101299.00;;;23.90;57.23
75936;BME280;64614;32.062;34.834;2022-11-11T03:06:14;101300.13;;;23.89;57.21
75936;BME280;64614;32.062;34.834;2022-11-11T03:08:39;101296.25;;;23.90;57.08
75936;BME280;64614;32.062;34.834;2022-11-11T03:11:05;101306.19;;;23.86;57.45
75936;BME280;64614;32.062;34.834;2022-11-11T03:13:31;101302.34;;;23.87;56.97
75936;BME280;64614;32.062;34.834;2022-11-11T03:15:56;101295.53;;;23.84;57.08
75936;BME280;64614;32.062;34.834;2022-11-11T03:18:22;101300.72;;;23.86;57.39
75936;BME280;64614;32.062;34.834;2022-11-11T03:20:47;101301.81;;;23.85;57.72
75936;BME280;64614;32.062;34.834;2022-11-11T03:23:28;101304.56;;;23.85;57.34
75936;BME280;64614;32.062;34.834;2022-11-11T03:25:54;101308.94;;;23.86;57.38
75936;BME280;64614;32.062;34.834;2022-11-11T03:28:20;101319.91;;;23.86;57.21
75936;BME280;64614;32.062;34.834;2022-11-11T03:30:47;101317.78;;;23.83;57.30
75936;BME280;64614;32.062;34.834;2022-11-11T03:33:14;101326.03;;;23.83;57.31
75936;BME280;64614;32.062;34.834;2022-11-11T03:35:41;101326.03;;;23.83;57.62
75936;BME280;64614;32.062;34.834;2022-11-11T03:38:10;101326.03;;;23.83;57.49
75936;BME280;64614;32.062;34.834;2022-11-11T03:41:02;101325.19;;;23.82;57.15
75936;BME280;64614;32.062;34.834;2022-11-11T03:43:32;101327.94;;;23.82;57.79
75936;BME280;64614;32.062;34.834;2022-11-11T03:45:59;101342.47;;;23.83;57.51
75936;BME280;64614;32.062;34.834;2022-11-11T03:48:27;101344.72;;;23.81;57.26
75936;BME280;64614;32.062;34.834;2022-11-11T03:50:53;101339.22;;;23.81;57.28
75936;BME280;64614;32.062;34.834;2022-11-11T03:53:20;101338.41;;;23.80;57.64
75936;BME280;64614;32.062;34.834;2022-11-11T03:55:46;101336.78;;;23.79;57.69
75936;BME280;64614;32.062;34.834;2022-11-11T03:58:12;101343.91;;;23.80;57.87
75936;BME280;64614;32.062;34.834;2022-11-11T04:00:38;101341.44;;;23.78;55.29
75936;BME280;64614;32.062;34.834;2022-11-11T04:03:06;101346.41;;;23.76;56.43
75936;BME280;64614;32.062;34.834;2022-11-11T04:06:04;101343.38;;;23.78;56.95
75936;BME280;64614;32.062;34.834;2022-11-11T04:08:49;101341.44;;;23.78;57.23
75936;BME280;64614;32.062;34.834;2022-11-11T04:11:34;101342.56;;;23.77;57.83
75936;BME280;64614;32.062;34.834;2022-11-11T04:14:06;101345.63;;;23.76;58.03
75936;BME280;64614;32.062;34.834;2022-11-11T04:16:51;101347.75;;;23.79;57.73
75936;BME280;64614;32.062;34.834;2022-11-11T04:19:17;101346.94;;;23.78;57.36
75936;BME280;64614;32.062;34.834;2022-11-11T04:22:01;101347.25;;;23.77;58.48
75936;BME280;64614;32.062;34.834;2022-11-11T04:24:26;101347.84;;;23.74;55.41
75936;BME280;64614;32.062;34.834;2022-11-11T04:27:13;101348.03;;;23.77;57.35
75936;BME280;64614;32.062;34.834;2022-11-11T04:29:39;101350.31;;;23.75;58.19
75936;BME280;64614;32.062;34.834;2022-11-11T04:32:10;101354.97;;;23.75;57.58
75936;BME280;64614;32.062;34.834;2022-11-11T04:34:59;101352.41;;;23.78;57.86
75936;BME280;64614;32.062;34.834;2022-11-11T04:37:27;101352.97;;;24.36;55.54
75936;BME280;64614;32.062;34.834;2022-11-11T04:39:55;101355.34;;;24.80;54.68
75936;BME280;64614;32.062;34.834;2022-11-11T04:42:39;101358.41;;;25.01;53.94
75936;BME280;64614;32.062;34.834;2022-11-11T04:45:10;101354.09;;;25.09;53.47
75936;BME280;64614;32.062;34.834;2022-11-11T04:48:05;101362.63;;;24.98;53.82
75936;BME280;64614;32.062;34.834;2022-11-11T04:50:34;101362.84;;;24.88;54.58
75936;BME280;64614;32.062;34.834;2022-11-11T04:53:01;101353.34;;;25.17;53.65
75936;BME280;64614;32.062;34.834;2022-11-11T04:55:27;101368.34;;;25.11;54.00
75936;BME280;64614;32.062;34.834;2022-11-11T04:58:11;101361.59;;;25.17;52.76
75936;BME280;64614;32.062;34.834;2022-11-11T05:00:37;101362.28;;;25.23;51.68
75936;BME280;64614;32.062;34.834;2022-11-11T05:03:03;101368.09;;;25.21;51.34
75936;BME280;64614;32.062;34.834;2022-11-11T05:05:49;101366.16;;;25.22;50.16
75936;BME280;64614;32.062;34.834;2022-11-11T05:08:39;101364.84;;;25.19;49.56
75936;BME280;64614;32.062;34.834;2022-11-11T05:14:14;101364.66;;;25.15;49.36
75936;BME280;64614;32.062;34.834;2022-11-11T05:16:58;101373.56;;;25.12;49.53
75936;BME280;64614;32.062;34.834;2022-11-11T05:19:42;101360.22;;;25.06;49.83
75936;BME280;64614;32.062;34.834;2022-11-11T05:24:55;101363.50;;;25.08;48.90
75936;BME280;64614;32.062;34.834;2022-11-11T05:27:40;101369.78;;;25.08;48.34
75936;BME280;64614;32.062;34.834;2022-11-11T05:30:07;101370.59;;;25.09;47.86
75936;BME280;64614;32.062;34.834;2022-11-11T05:32:33;101365.31;;;25.12;47.57
75936;BME280;64614;32.062;34.834;2022-11-11T05:45:20;101383.09;;;25.38;47.12
75936;BME280;64614;32.062;34.834;2022-11-11T05:47:48;101368.09;;;25.44;47.12
75936;BME280;64614;32.062;34.834;2022-11-11T05:50:15;101377.38;;;25.48;47.29
75936;BME280;64614;32.062;34.834;2022-11-11T05:52:47;101370.41;;;25.50;46.69
75936;BME280;64614;32.062;34.834;2022-11-11T05:55:14;101374.03;;;25.60;46.28
75936;BME280;64614;32.062;34.834;2022-11-11T05:57:42;101385.22;;;25.63;46.21
75936;BME280;64614;32.062;34.834;2022-11-11T06:00:08;101381.84;;;25.67;46.54
75936;BME280;64614;32.062;34.834;2022-11-11T06:02:34;101380.44;;;25.78;47.04
75936;BME280;64614;32.062;34.834;2022-11-11T06:05:00;101390.81;;;25.81;47.27
75936;BME280;64614;32.062;34.834;2022-11-11T06:07:25;101388.56;;;25.83;47.07
75936;BME280;64614;32.062;34.834;2022-11-11T06:09:51;101392.78;;;25.89;45.01
75936;BME280;64614;32.062;34.834;2022-11-11T06:12:18;101395.06;;;25.87;45.25
75936;BME280;64614;32.062;34.834;2022-11-11T06:14:43;101396.19;;;25.86;44.12
75936;BME280;64614;32.062;34.834;2022-11-11T06:17:09;101387.03;;;25.68;44.50
75936;BME280;64614;32.062;34.834;2022-11-11T06:19:35;101398.47;;;25.61;45.62
75936;BME280;64614;32.062;34.834;2022-11-11T06:22:00;101391.28;;;25.52;45.27
75936;BME280;64614;32.062;34.834;2022-11-11T06:24:28;101392.97;;;25.61;45.43
75936;BME280;64614;32.062;34.834;2022-11-11T06:26:54;101388.47;;;25.65;45.55
75936;BME280;64614;32.062;34.834;2022-11-11T06:29:21;101384.25;;;25.68;45.92
75936;BME280;64614;32.062;34.834;2022-11-11T06:31:47;101390.97;;;25.53;46.36
75936;BME280;64614;32.062;34.834;2022-11-11T06:34:12;101390.09;;;25.67;46.00
75936;BME280;64614;32.062;34.834;2022-11-11T06:36:40;101385.56;;;25.71;45.60
75936;BME280;64614;32.062;34.834;2022-11-11T06:39:05;101394.22;;;25.55;45.24
75936;BME280;64614;32.062;34.834;2022-11-11T06:41:31;101400.16;;;25.48;44.18
75936;BME280;64614;32.062;34.834;2022-11-11T06:43:57;101389.91;;;25.40;44.18
75936;BME280;64614;32.062;34.834;2022-11-11T06:46:24;101399.28;;;25.39;45.08
75936;BME280;64614;32.062;34.834;2022-11-11T06:48:50;101391.25;;;25.43;45.67
75936;BME280;64614;32.062;34.834;2022-11-11T06:51:16;101395.50;;;25.49;45.46
75936;BME280;64614;32.062;34.834;2022-11-11T06:53:42;101393.69;;;25.44;45.35
75936;BME280;64614;32.062;34.834;2022-11-11T06:56:08;101391.34;;;25.38;45.69
75936;BME280;64614;32.062;34.834;2022-11-11T06:58:34;101394.81;;;25.43;45.19
75936;BME280;64614;32.062;34.834;2022-11-11T07:01:04;101397.22;;;25.45;45.23
75936;BME280;64614;32.062;34.834;2022-11-11T07:03:32;101390.59;;;25.46;45.09
75936;BME280;64614;32.062;34.834;2022-11-11T07:06:04;101383.19;;;25.46;45.15
75936;BME280;64614;32.062;34.834;2022-11-11T07:08:31;101382.50;;;25.41;45.43
75936;BME280;64614;32.062;34.834;2022-11-11T07:10:57;101384.72;;;25.39;44.91
75936;BME280;64614;32.062;34.834;2022-11-11T07:13:24;101380.47;;;25.32;45.46
75936;BME280;64614;32.062;34.834;2022-11-11T07:15:49;101382.50;;;25.41;45.18
75936;BME280;64614;32.062;34.834;2022-11-11T07:18:15;101378.63;;;25.42;44.94
75936;BME280;64614;32.062;34.834;2022-11-11T07:20:41;101381.56;;;25.45;45.09
75936;BME280;64614;32.062;34.834;2022-11-11T07:23:07;101379.09;;;25.44;44.91
75936;BME280;64614;32.062;34.834;2022-11-11T07:25:32;101379.59;;;25.46;44.09
75936;BME280;64614;32.062;34.834;2022-11-11T07:27:58;101375.88;;;25.42;43.18
75936;BME280;64614;32.062;34.834;2022-11-11T07:30:24;101370.84;;;25.44;43.36
75936;BME280;64614;32.062;34.834;2022-11-11T07:32:51;101380.94;;;25.34;43.18
75936;BME280;64614;32.062;34.834;2022-11-11T07:35:18;101369.88;;;25.40;42.62
75936;BME280;64614;32.062;34.834;2022-11-11T07:37:44;101381.66;;;25.40;43.03
75936;BME280;64614;32.062;34.834;2022-11-11T07:40:12;101384.00;;;25.47;43.70
75936;BME280;64614;32.062;34.834;2022-11-11T07:42:39;101380.03;;;25.39;44.41
75936;BME280;64614;32.062;34.834;2022-11-11T07:45:07;101384.50;;;25.49;44.29
75936;BME280;64614;32.062;34.834;2022-11-11T07:47:33;101379.69;;;25.55;43.51
75936;BME280;64614;32.062;34.834;2022-11-11T07:49:59;101371.78;;;25.62;42.59
75936;BME280;64614;32.062;34.834;2022-11-11T07:52:25;101371.09;;;25.56;42.45
75936;BME280;64614;32.062;34.834;2022-11-11T07:54:51;101370.16;;;25.61;42.53
75936;BME280;64614;32.062;34.834;2022-11-11T07:57:16;101368.84;;;25.58;43.04
75936;BME280;64614;32.062;34.834;2022-11-11T07:59:42;101363.84;;;25.60;43.63
75936;BME280;64614;32.062;34.834;2022-11-11T08:02:11;101361.28;;;25.64;43.54
75936;BME280;64614;32.062;34.834;2022-11-11T08:04:37;101363.38;;;25.67;43.67
75936;BME280;64614;32.062;34.834;2022-11-11T08:08:31;101346.78;;;25.49;44.01
75936;BME280;64614;32.062;34.834;2022-11-11T08:10:56;101356.34;;;25.52;44.02
75936;BME280;64614;32.062;34.834;2022-11-11T08:13:22;101354.56;;;25.47;42.77
75936;BME280;64614;32.062;34.834;2022-11-11T08:16:14;101361.63;;;25.40;43.01
75936;BME280;64614;32.062;34.834;2022-11-11T08:18:40;101355.59;;;25.38;43.27
75936;BME280;64614;32.062;34.834;2022-11-11T08:21:07;101352.97;;;25.32;41.64
75936;BME280;64614;32.062;34.834;2022-11-11T08:23:33;101349.59;;;25.35;41.87
75936;BME280;64614;32.062;34.834;2022-11-11T08:26:04;101344.56;;;25.29;42.55
75936;BME280;64614;32.062;34.834;2022-11-11T08:28:31;101352.34;;;25.35;42.40
75936;BME280;64614;32.062;34.834;2022-11-11T08:30:59;101337.84;;;25.44;42.75
75936;BME280;64614;32.062;34.834;2022-11-11T08:33:26;101341.25;;;25.41;42.99
75936;BME280;64614;32.062;34.834;2022-11-11T08:35:52;101342.38;;;25.40;42.32
75936;BME280;64614;32.062;34.834;2022-11-11T08:38:19;101338.50;;;25.41;43.34
75936;BME280;64614;32.062;34.834;2022-11-11T08:40:45;101323.81;;;25.45;43.17
75936;BME280;64614;32.062;34.834;2022-11-11T08:43:14;101318.31;;;25.45;43.68
75936;BME280;64614;32.062;34.834;2022-11-11T08:45:41;101329.50;;;25.49;43.91
75936;BME280;64614;32.062;34.834;2022-11-11T08:48:07;101323.16;;;25.48;43.49
75936;BME280;64614;32.062;34.834;2022-11-11T08:50:38;101319.00;;;25.51;43.76
75936;BME280;64614;32.062;34.834;2022-11-11T08:53:05;101316.25;;;25.51;43.90
75936;BME280;64614;32.062;34.834;2022-11-11T08:55:33;101313.50;;;25.51;44.49
75936;BME280;64614;32.062;34.834;2022-11-11T08:58:00;101313.97;;;25.53;44.42
75936;BME280;64614;32.062;34.834;2022-11-11T09:00:27;101302.97;;;25.53;44.15
75936;BME280;64614;32.062;34.834;2022-11-11T09:02:53;101302.66;;;25.55;44.04
75936;BME280;64614;32.062;34.834;2022-11-11T09:05:19;101303.78;;;25.54;44.57
75936;BME280;64614;32.062;34.834;2022-11-11T09:07:46;101293.28;;;25.56;44.02
75936;BME280;64614;32.062;34.834;2022-11-11T09:10:11;101295.22;;;25.55;44.79
75936;BME280;64614;32.062;34.834;2022-11-11T09:12:37;101291.34;;;25.56;44.39
75936;BME280;64614;32.062;34.834;2022-11-11T09:15:03;101288.25;;;25.58;44.67
75936;BME280;64614;32.062;34.834;2022-11-11T09:17:29;101284.09;;;25.60;44.40
75936;BME280;64614;32.062;34.834;2022-11-11T09:19:55;101278.75;;;25.64;45.04
75936;BME280;64614;32.062;34.834;2022-11-11T09:22:20;101280.41;;;25.74;44.85
75936;BME280;64614;32.062;34.834;2022-11-11T09:24:46;101278.16;;;25.76;45.39
75936;BME280;64614;32.062;34.834;2022-11-11T09:27:12;101280.13;;;25.84;44.59
75936;BME280;64614;32.062;34.834;2022-11-11T09:29:39;101281.06;;;25.79;43.82
75936;BME280;64614;32.062;34.834;2022-11-11T09:32:16;101261.94;;;25.74;42.68
75936;BME280;64614;32.062;34.834;2022-11-11T09:34:42;101268.41;;;25.70;42.97
75936;BME280;64614;32.062;34.834;2022-11-11T09:37:07;101259.84;;;25.71;43.14
75936;BME280;64614;32.062;34.834;2022-11-11T09:39:33;101262.00;;;25.83;42.95
75936;BME280;64614;32.062;34.834;2022-11-11T09:47:04;101258.25;;;25.79;42.86
75936;BME280;64614;32.062;34.834;2022-11-11T09:50:07;101245.47;;;25.83;42.23
75936;BME280;64614;32.062;34.834;2022-11-11T09:52:50;101244.19;;;25.89;42.37
75936;BME280;64614;32.062;34.834;2022-11-11T09:56:00;101245.81;;;25.81;41.14
75936;BME280;64614;32.062;34.834;2022-11-11T09:58:41;101231.88;;;25.78;41.77
75936;BME280;64614;32.062;34.834;2022-11-11T10:01:55;101238.19;;;25.78;41.99
75936;BME280;64614;32.062;34.834;2022-11-11T10:06:40;101233.50;;;25.88;42.11
75936;BME280;64614;32.062;34.834;2022-11-11T10:09:23;101227.06;;;25.92;41.57
75936;BME280;64614;32.062;34.834;2022-11-11T10:12:09;101221.03;;;25.81;40.98
75936;BME280;64614;32.062;34.834;2022-11-11T10:14:38;101210.19;;;25.76;40.53
75936;BME280;64614;32.062;34.834;2022-11-11T10:20:22;101210.50;;;25.84;40.92
75936;BME280;64614;32.062;34.834;2022-11-11T10:23:20;101212.97;;;25.85;41.29
75936;BME280;64614;32.062;34.834;2022-11-11T10:26:23;101197.09;;;25.82;41.64
75936;BME280;64614;32.062;34.834;2022-11-11T10:28:53;101200.00;;;25.86;41.55
75936;BME280;64614;32.062;34.834;2022-11-11T10:31:21;101189.03;;;25.94;42.59
75936;BME280;64614;32.062;34.834;2022-11-11T10:34:02;101187.06;;;25.95;42.54
75936;BME280;64614;32.062;34.834;2022-11-11T10:36:29;101189.00;;;25.86;41.43
75936;BME280;64614;32.062;34.834;2022-11-11T10:39:01;101185.88;;;25.70;41.27
75936;BME280;64614;32.062;34.834;2022-11-11T10:41:42;101198.72;;;25.83;42.69
75936;BME280;64614;32.062;34.834;2022-11-11T10:44:31;101186.06;;;25.82;43.15
75936;BME280;64614;32.062;34.834;2022-11-11T10:50:10;101195.66;;;25.93;42.66
75936;BME280;64614;32.062;34.834;2022-11-11T10:52:42;101193.41;;;25.95;43.25
75936;BME280;64614;32.062;34.834;2022-11-11T10:55:24;101195.00;;;25.96;42.99
75936;BME280;64614;32.062;34.834;2022-11-11T10:58:10;101198.28;;;25.49;43.61
75936;BME280;64614;32.062;34.834;2022-11-11T11:00:40;101187.63;;;25.57;44.82
75936;BME280;64614;32.062;34.834;2022-11-11T11:08:19;101180.38;;;25.70;44.10
75936;BME280;64614;32.062;34.834;2022-11-11T11:10:57;101181.53;;;25.28;44.53
75936;BME280;64614;32.062;34.834;2022-11-11T11:13:52;101185.28;;;25.32;46.53
75936;BME280;64614;32.062;34.834;2022-11-11T11:16:26;101185.66;;;25.48;46.03
75936;BME280;64614;32.062;34.834;2022-11-11T11:19:15;101194.28;;;25.64;45.93
75936;BME280;64614;32.062;34.834;2022-11-11T11:21:51;101201.59;;;25.69;45.84
75936;BME280;64614;32.062;34.834;2022-11-11T11:24:20;101195.53;;;25.41;44.86
75936;BME280;64614;32.062;34.834;2022-11-11T11:26:48;101192.84;;;25.27;46.54
75936;BME280;64614;32.062;34.834;2022-11-11T11:31:57;101195.31;;;25.37;46.97
75936;BME280;64614;32.062;34.834;2022-11-11T11:34:53;101196.31;;;25.41;47.00
75936;BME280;64614;32.062;34.834;2022-11-11T11:37:21;101192.94;;;25.44;47.03
75936;BME280;64614;32.062;34.834;2022-11-11T11:39:48;101197.66;;;25.53;45.20
75936;BME280;64614;32.062;34.834;2022-11-11T11:42:31;101202.75;;;25.37;46.54
75936;BME280;64614;32.062;34.834;2022-11-11T11:45:15;101192.00;;;25.17;47.84
75936;BME280;64614;32.062;34.834;2022-11-11T11:56:38;101196.84;;;25.52;47.51
75936;BME280;64614;32.062;34.834;2022-11-11T11:59:12;101195.53;;;25.49;47.80
75936;BME280;64614;32.062;34.834;2022-11-11T12:15:29;101195.41;;;25.55;48.53
75936;BME280;64614;32.062;34.834;2022-11-11T12:20:26;101205.59;;;25.54;48.77
75936;BME280;64614;32.062;34.834;2022-11-11T12:23:25;101201.09;;;25.58;48.57
75936;BME280;64614;32.062;34.834;2022-11-11T12:26:06;101189.59;;;25.56;48.44
75936;BME280;64614;32.062;34.834;2022-11-11T12:29:02;101187.16;;;25.55;48.86
75936;BME280;64614;32.062;34.834;2022-11-11T12:34:33;101190.88;;;25.59;48.77
75936;BME280;64614;32.062;34.834;2022-11-11T12:40:03;101192.84;;;25.58;49.06
75936;BME280;64614;32.062;34.834;2022-11-11T12:45:16;101201.59;;;25.60;49.19
75936;BME280;64614;32.062;34.834;2022-11-11T12:50:47;101199.63;;;25.61;49.26
75936;BME280;64614;32.062;34.834;2022-11-11T12:53:17;101192.66;;;25.63;49.32
75936;BME280;64614;32.062;34.834;2022-11-11T13:17:00;101193.31;;;25.60;50.06
75936;BME280;64614;32.062;34.834;2022-11-11T13:19:45;101195.41;;;25.63;49.86
75936;BME280;64614;32.062;34.834;2022-11-11T13:22:30;101192.50;;;25.60;50.04
75936;BME280;64614;32.062;34.834;2022-11-11T13:24:57;101196.38;;;25.59;50.35
75936;BME280;64614;32.062;34.834;2022-11-11T13:33:07;101201.59;;;25.60;50.45
75936;BME280;64614;32.062;34.834;2022-11-11T13:35:47;101198.78;;;25.43;49.07
75936;BME280;64614;32.062;34.834;2022-11-11T13:40:54;101202.72;;;25.59;49.59
75936;BME280;64614;32.062;34.834;2022-11-11T13:43:27;101201.19;;;25.44;48.67
75936;BME280;64614;32.062;34.834;2022-11-11T13:45:55;101201.88;;;25.50;49.53
75936;BME280;64614;32.062;34.834;2022-11-11T13:48:35;101195.25;;;25.51;48.26
75936;BME280;64614;32.062;34.834;2022-11-11T13:51:37;101202.50;;;25.47;47.37
75936;BME280;64614;32.062;34.834;2022-11-11T13:54:20;101203.25;;;25.39;48.06
75936;BME280;64614;32.062;34.834;2022-11-11T13:56:48;101191.91;;;25.31;48.15
75936;BME280;64614;32.062;34.834;2022-11-11T14:09:59;101200.44;;;25.21;49.32
75936;BME280;64614;32.062;34.834;2022-11-11T14:12:38;101203.19;;;25.21;48.78
75936;BME280;64614;32.062;34.834;2022-11-11T14:18:08;101195.38;;;25.14;48.76
75936;BME280;64614;32.062;34.834;2022-11-11T14:20:35;101202.16;;;25.17;48.85
75936;BME280;64614;32.062;34.834;2022-11-11T14:23:31;101214.16;;;25.21;48.92
75936;BME280;64614;32.062;34.834;2022-11-11T14:33:55;101206.84;;;25.08;49.35
75936;BME280;64614;32.062;34.834;2022-11-11T14:40:07;101207.78;;;25.03;50.09
75936;BME280;64614;32.062;34.834;2022-11-11T14:45:02;101222.47;;;24.98;50.14
75936;BME280;64614;32.062;34.834;2022-11-11T14:47:34;101206.44;;;24.92;50.46
75936;BME280;64614;32.062;34.834;2022-11-11T14:50:00;101216.41;;;24.87;50.57
75936;BME280;64614;32.062;34.834;2022-11-11T14:52:42;101221.44;;;24.85;50.24
75936;BME280;64614;32.062;34.834;2022-11-11T14:55:25;101217.84;;;24.85;50.41
75936;BME280;64614;32.062;34.834;2022-11-11T15:06:04;101217.00;;;24.76;50.58
75936;BME280;64614;32.062;34.834;2022-11-11T15:11:32;101238.44;;;24.74;50.57
75936;BME280;64614;32.062;34.834;2022-11-11T15:17:44;101229.75;;;24.71;50.73
75936;BME280;64614;32.062;34.834;2022-11-11T15:34:59;101262.88;;;24.75;50.59
75936;BME280;64614;32.062;34.834;2022-11-11T15:37:29;101263.34;;;24.77;50.11
75936;BME280;64614;32.062;34.834;2022-11-11T15:39:56;101256.09;;;24.73;50.58
75936;BME280;64614;32.062;34.834;2022-11-11T15:42:35;101258.63;;;24.69;50.45
75936;BME280;64614;32.062;34.834;2022-11-11T15:45:22;101259.94;;;24.71;50.41
75936;BME280;64614;32.062;34.834;2022-11-11T15:47:50;101259.22;;;24.66;51.13
75936;BME280;64614;32.062;34.834;2022-11-11T15:52:58;101260.66;;;24.63;51.10
75936;BME280;64614;32.062;34.834;2022-11-11T15:55:26;101269.19;;;24.62;50.84
75936;BME280;64614;32.062;34.834;2022-11-11T15:57:52;101273.25;;;24.64;50.62